N75TM KPWK-KARV
Flight info
| Callsign | N75TM |
|---|---|
| Flight time | 1h 11m |
| Altitude | 20000 |
| Route | PMPKN NEATO DLLAN RONIC BAE RHI |
| Aircraft | TBM8/L-BDGRSWY/B2S |
Departure
| Time | 2026-04-23 21:56 |
|---|---|
| Airport | Chicago Executive Airport (KPWK) |
Arrival
| Time | 2026-04-23 23:08 |
|---|---|
| Airport | Lakeland Airport Noble F Lee Memorial Field (KARV) |
| Time | Latitude | Longitude | Altitude | Speed | Heading |
|---|---|---|---|---|---|
| 2026-04-23 21:37 | 42.11637 | -87.89989 | 640 ft | 0 kts | 248° |
| 2026-04-23 21:45 | 42.11636 | -87.89989 | 640 ft | 0 kts | 247° |
| 2026-04-23 21:45 | 42.11633 | -87.89998 | 640 ft | 4 kts | 243° |
| 2026-04-23 21:46 | 42.11611 | -87.90024 | 640 ft | 3 kts | 175° |
| 2026-04-23 21:46 | 42.11607 | -87.90023 | 640 ft | 2 kts | 174° |
| 2026-04-23 21:46 | 42.11564 | -87.90089 | 640 ft | 16 kts | 248° |
| 2026-04-23 21:46 | 42.11521 | -87.90127 | 638 ft | 8 kts | 157° |
| 2026-04-23 21:47 | 42.11475 | -87.90103 | 637 ft | 4 kts | 160° |
| 2026-04-23 21:47 | 42.11457 | -87.90093 | 637 ft | 3 kts | 158° |
| 2026-04-23 21:47 | 42.11415 | -87.90070 | 637 ft | 10 kts | 162° |
| 2026-04-23 21:47 | 42.11363 | -87.90082 | 638 ft | 3 kts | 174° |
| 2026-04-23 21:48 | 42.11366 | -87.90062 | 638 ft | 5 kts | 32° |
| 2026-04-23 21:48 | 42.11427 | -87.90077 | 637 ft | 14 kts | 339° |
| 2026-04-23 21:48 | 42.11519 | -87.90169 | 636 ft | 19 kts | 277° |
| 2026-04-23 21:48 | 42.11574 | -87.90168 | 637 ft | 10 kts | 7° |
| 2026-04-23 21:49 | 42.11665 | -87.90202 | 638 ft | 18 kts | 336° |
| 2026-04-23 21:49 | 42.11800 | -87.90274 | 636 ft | 23 kts | 339° |
| 2026-04-23 21:49 | 42.11934 | -87.90343 | 637 ft | 18 kts | 338° |
| 2026-04-23 21:49 | 42.12042 | -87.90401 | 636 ft | 16 kts | 337° |
| 2026-04-23 21:50 | 42.12132 | -87.90444 | 637 ft | 13 kts | 336° |
| 2026-04-23 21:50 | 42.12211 | -87.90491 | 639 ft | 13 kts | 338° |
| 2026-04-23 21:50 | 42.12295 | -87.90531 | 639 ft | 13 kts | 352° |
| 2026-04-23 21:50 | 42.12368 | -87.90500 | 642 ft | 7 kts | 3° |
| 2026-04-23 21:51 | 42.12383 | -87.90529 | 641 ft | 1 kts | 249° |
| 2026-04-23 21:55 | 42.12360 | -87.90596 | 642 ft | 19 kts | 244° |
| 2026-04-23 21:55 | 42.12307 | -87.90699 | 641 ft | 4 kts | 159° |
| 2026-04-23 21:55 | 42.12300 | -87.90696 | 640 ft | 9 kts | 158° |
| 2026-04-23 21:55 | 42.12071 | -87.90576 | 638 ft | 61 kts | 155° |
| 2026-04-23 21:56 | 42.11531 | -87.90302 | 666 ft | 99 kts | 172° |
| 2026-04-23 21:56 | 42.10844 | -87.89967 | 1005 ft | 105 kts | 173° |
| 2026-04-23 21:56 | 42.10145 | -87.89960 | 1481 ft | 106 kts | 214° |
| 2026-04-23 21:56 | 42.09966 | -87.90945 | 1919 ft | 122 kts | 285° |
| 2026-04-23 21:57 | 42.10561 | -87.91806 | 2344 ft | 140 kts | 329° |
| 2026-04-23 21:57 | 42.11462 | -87.92390 | 2634 ft | 152 kts | 327° |
| 2026-04-23 21:57 | 42.12464 | -87.93073 | 2806 ft | 172 kts | 329° |
| 2026-04-23 21:57 | 42.13573 | -87.93904 | 2905 ft | 193 kts | 323° |
| 2026-04-23 21:58 | 42.14738 | -87.94811 | 3223 ft | 195 kts | 324° |
| 2026-04-23 21:58 | 42.15934 | -87.95720 | 3586 ft | 199 kts | 326° |
| 2026-04-23 21:58 | 42.17256 | -87.96366 | 3955 ft | 204 kts | 350° |
| 2026-04-23 21:58 | 42.18649 | -87.96181 | 4326 ft | 205 kts | 11° |
| 2026-04-23 21:59 | 42.20063 | -87.95856 | 4697 ft | 206 kts | 7° |
| 2026-04-23 21:59 | 42.21476 | -87.95561 | 5086 ft | 204 kts | 7° |
| 2026-04-23 21:59 | 42.22859 | -87.95242 | 5578 ft | 198 kts | 8° |
| 2026-04-23 22:00 | 42.25557 | -87.94702 | 6534 ft | 193 kts | 4° |
| 2026-04-23 22:00 | 42.26869 | -87.94336 | 6997 ft | 191 kts | 11° |
| 2026-04-23 22:00 | 42.28154 | -87.93969 | 7468 ft | 187 kts | 7° |
| 2026-04-23 22:00 | 42.29425 | -87.93698 | 7948 ft | 183 kts | 5° |
| 2026-04-23 22:01 | 42.30670 | -87.93436 | 8377 ft | 181 kts | 5° |
| 2026-04-23 22:01 | 42.31923 | -87.93455 | 8690 ft | 180 kts | 349° |
| 2026-04-23 22:01 | 42.33157 | -87.93636 | 9049 ft | 180 kts | 349° |
| 2026-04-23 22:01 | 42.34402 | -87.93790 | 9417 ft | 180 kts | 351° |
| 2026-04-23 22:02 | 42.35658 | -87.93937 | 9751 ft | 181 kts | 351° |
| 2026-04-23 22:02 | 42.36917 | -87.94087 | 10066 ft | 181 kts | 351° |
| 2026-04-23 22:02 | 42.38177 | -87.94235 | 10371 ft | 184 kts | 351° |
| 2026-04-23 22:02 | 42.39475 | -87.94389 | 10614 ft | 190 kts | 351° |
| 2026-04-23 22:03 | 42.40808 | -87.94546 | 10858 ft | 195 kts | 351° |
| 2026-04-23 22:03 | 42.42173 | -87.94702 | 11111 ft | 198 kts | 352° |
| 2026-04-23 22:03 | 42.43569 | -87.94863 | 11353 ft | 203 kts | 351° |
| 2026-04-23 22:03 | 42.44989 | -87.95040 | 11604 ft | 206 kts | 351° |
| 2026-04-23 22:04 | 42.46423 | -87.95226 | 11868 ft | 207 kts | 350° |
| 2026-04-23 22:04 | 42.47862 | -87.95402 | 12152 ft | 208 kts | 351° |
| 2026-04-23 22:04 | 42.49311 | -87.95574 | 12457 ft | 208 kts | 351° |
| 2026-04-23 22:04 | 42.50736 | -87.95748 | 12767 ft | 209 kts | 351° |
| 2026-04-23 22:05 | 42.52186 | -87.95926 | 13042 ft | 209 kts | 351° |
| 2026-04-23 22:05 | 42.53639 | -87.96105 | 13335 ft | 210 kts | 351° |
| 2026-04-23 22:05 | 42.55095 | -87.96284 | 13613 ft | 210 kts | 351° |
| 2026-04-23 22:05 | 42.56553 | -87.96462 | 13870 ft | 211 kts | 351° |
| 2026-04-23 22:06 | 42.58015 | -87.96647 | 14115 ft | 211 kts | 351° |
| 2026-04-23 22:06 | 42.59482 | -87.96821 | 14375 ft | 212 kts | 351° |
| 2026-04-23 22:06 | 42.60955 | -87.97004 | 14612 ft | 213 kts | 351° |
| 2026-04-23 22:06 | 42.62408 | -87.97305 | 14859 ft | 209 kts | 337° |
| 2026-04-23 22:07 | 42.63730 | -87.98111 | 15082 ft | 208 kts | 329° |
| 2026-04-23 22:07 | 42.65036 | -87.98985 | 15327 ft | 209 kts | 330° |
| 2026-04-23 22:07 | 42.66363 | -87.99816 | 15582 ft | 210 kts | 331° |
| 2026-04-23 22:07 | 42.67694 | -88.00643 | 15823 ft | 210 kts | 331° |
| 2026-04-23 22:08 | 42.69008 | -88.01465 | 16060 ft | 211 kts | 330° |
| 2026-04-23 22:08 | 42.70349 | -88.02309 | 16284 ft | 212 kts | 330° |
| 2026-04-23 22:08 | 42.71691 | -88.03153 | 16513 ft | 213 kts | 330° |
| 2026-04-23 22:08 | 42.73040 | -88.03996 | 16749 ft | 213 kts | 330° |
| 2026-04-23 22:09 | 42.74388 | -88.04845 | 16988 ft | 213 kts | 330° |
| 2026-04-23 22:09 | 42.75738 | -88.05695 | 17211 ft | 214 kts | 331° |
| 2026-04-23 22:09 | 42.77096 | -88.06546 | 17424 ft | 215 kts | 330° |
| 2026-04-23 22:09 | 42.78453 | -88.07398 | 17670 ft | 215 kts | 330° |
| 2026-04-23 22:10 | 42.79796 | -88.08242 | 17867 ft | 216 kts | 331° |
| 2026-04-23 22:10 | 42.81163 | -88.09100 | 18060 ft | 217 kts | 330° |
| 2026-04-23 22:10 | 42.82533 | -88.09972 | 18259 ft | 217 kts | 330° |
| 2026-04-23 22:10 | 42.83905 | -88.10834 | 18461 ft | 217 kts | 330° |
| 2026-04-23 22:11 | 42.85272 | -88.11696 | 18661 ft | 216 kts | 330° |
| 2026-04-23 22:11 | 42.86640 | -88.12560 | 18853 ft | 217 kts | 330° |
| 2026-04-23 22:11 | 42.88018 | -88.13427 | 19011 ft | 219 kts | 330° |
| 2026-04-23 22:11 | 42.89411 | -88.14305 | 19133 ft | 223 kts | 330° |
| 2026-04-23 22:12 | 42.90833 | -88.15204 | 19253 ft | 226 kts | 330° |
| 2026-04-23 22:12 | 42.92271 | -88.16112 | 19374 ft | 229 kts | 331° |
| 2026-04-23 22:12 | 42.93727 | -88.17032 | 19499 ft | 231 kts | 330° |
| 2026-04-23 22:12 | 42.95193 | -88.17952 | 19620 ft | 232 kts | 331° |
| 2026-04-23 22:13 | 42.96664 | -88.18880 | 19736 ft | 234 kts | 330° |
| 2026-04-23 22:13 | 42.98148 | -88.19827 | 19790 ft | 238 kts | 330° |
| 2026-04-23 22:13 | 42.99665 | -88.20798 | 19821 ft | 244 kts | 330° |
| 2026-04-23 22:13 | 43.01195 | -88.21770 | 19827 ft | 246 kts | 331° |
| 2026-04-23 22:14 | 43.02756 | -88.22747 | 19829 ft | 247 kts | 331° |
| 2026-04-23 22:14 | 43.04312 | -88.23729 | 19832 ft | 246 kts | 330° |
| 2026-04-23 22:14 | 43.05861 | -88.24718 | 19829 ft | 246 kts | 331° |
| 2026-04-23 22:14 | 43.07409 | -88.25704 | 19830 ft | 245 kts | 330° |
| 2026-04-23 22:15 | 43.08954 | -88.26684 | 19830 ft | 244 kts | 331° |
| 2026-04-23 22:15 | 43.10495 | -88.27666 | 19829 ft | 244 kts | 330° |
| 2026-04-23 22:15 | 43.12048 | -88.28604 | 19829 ft | 245 kts | 336° |
| 2026-04-23 22:15 | 43.13679 | -88.29307 | 19827 ft | 245 kts | 338° |
| 2026-04-23 22:16 | 43.15301 | -88.30029 | 19826 ft | 245 kts | 337° |
| 2026-04-23 22:16 | 43.16921 | -88.30764 | 19826 ft | 245 kts | 337° |
| 2026-04-23 22:16 | 43.18542 | -88.31484 | 19820 ft | 245 kts | 337° |
| 2026-04-23 22:16 | 43.20139 | -88.32197 | 19819 ft | 244 kts | 338° |
| 2026-04-23 22:17 | 43.21751 | -88.32919 | 19815 ft | 244 kts | 338° |
| 2026-04-23 22:17 | 43.23366 | -88.33640 | 19811 ft | 243 kts | 337° |
| 2026-04-23 22:17 | 43.24977 | -88.34363 | 19810 ft | 243 kts | 338° |
| 2026-04-23 22:17 | 43.26587 | -88.35082 | 19805 ft | 243 kts | 337° |
| 2026-04-23 22:18 | 43.28185 | -88.35833 | 19789 ft | 241 kts | 331° |
| 2026-04-23 22:18 | 43.29418 | -88.37271 | 19796 ft | 231 kts | 303° |
| 2026-04-23 22:18 | 43.30266 | -88.39131 | 19802 ft | 229 kts | 297° |
| 2026-04-23 22:18 | 43.31048 | -88.41008 | 19799 ft | 229 kts | 297° |
| 2026-04-23 22:19 | 43.31835 | -88.42911 | 19798 ft | 229 kts | 296° |
| 2026-04-23 22:19 | 43.32855 | -88.44592 | 19797 ft | 234 kts | 318° |
| 2026-04-23 22:19 | 43.34349 | -88.45534 | 19801 ft | 241 kts | 343° |
| 2026-04-23 22:19 | 43.35977 | -88.46088 | 19802 ft | 240 kts | 337° |
| 2026-04-23 22:20 | 43.37539 | -88.46878 | 19802 ft | 239 kts | 336° |
| 2026-04-23 22:20 | 43.39126 | -88.47600 | 19799 ft | 240 kts | 339° |
| 2026-04-23 22:20 | 43.40730 | -88.48244 | 19798 ft | 240 kts | 339° |
| 2026-04-23 22:20 | 43.42326 | -88.48905 | 19795 ft | 239 kts | 338° |
| 2026-04-23 22:21 | 43.43894 | -88.49567 | 19792 ft | 238 kts | 338° |
| 2026-04-23 22:21 | 43.45475 | -88.50236 | 19795 ft | 238 kts | 338° |
| 2026-04-23 22:21 | 43.47054 | -88.50903 | 19793 ft | 237 kts | 339° |
| 2026-04-23 22:21 | 43.48632 | -88.51569 | 19781 ft | 236 kts | 339° |
| 2026-04-23 22:22 | 43.50205 | -88.52232 | 19776 ft | 236 kts | 338° |
| 2026-04-23 22:22 | 43.51774 | -88.52893 | 19778 ft | 236 kts | 339° |
| 2026-04-23 22:22 | 43.53342 | -88.53555 | 19779 ft | 235 kts | 338° |
| 2026-04-23 22:22 | 43.54906 | -88.54218 | 19771 ft | 235 kts | 339° |
| 2026-04-23 22:23 | 43.56468 | -88.54881 | 19772 ft | 234 kts | 338° |
| 2026-04-23 22:23 | 43.58007 | -88.55531 | 19769 ft | 234 kts | 338° |
| 2026-04-23 22:23 | 43.59581 | -88.56200 | 19771 ft | 234 kts | 339° |
| 2026-04-23 22:23 | 43.61114 | -88.56847 | 19774 ft | 233 kts | 339° |
| 2026-04-23 22:24 | 43.62665 | -88.57506 | 19772 ft | 233 kts | 338° |
| 2026-04-23 22:24 | 43.64216 | -88.58165 | 19770 ft | 233 kts | 338° |
| 2026-04-23 22:24 | 43.65770 | -88.58823 | 19775 ft | 233 kts | 338° |
| 2026-04-23 22:24 | 43.67321 | -88.59481 | 19773 ft | 233 kts | 338° |
| 2026-04-23 22:25 | 43.68868 | -88.60140 | 19770 ft | 233 kts | 338° |
| 2026-04-23 22:25 | 43.70419 | -88.60801 | 19771 ft | 233 kts | 338° |
| 2026-04-23 22:25 | 43.71968 | -88.61458 | 19768 ft | 233 kts | 339° |
| 2026-04-23 22:25 | 43.73516 | -88.62114 | 19763 ft | 233 kts | 339° |
| 2026-04-23 22:26 | 43.75045 | -88.62767 | 19756 ft | 232 kts | 338° |
| 2026-04-23 22:26 | 43.76593 | -88.63428 | 19766 ft | 232 kts | 339° |
| 2026-04-23 22:26 | 43.78138 | -88.64085 | 19766 ft | 232 kts | 339° |
| 2026-04-23 22:26 | 43.79163 | -88.64522 | 19768 ft | 232 kts | 338° |
| 2026-04-23 22:27 | 43.80708 | -88.65183 | 19767 ft | 232 kts | 338° |
| 2026-04-23 22:27 | 43.82249 | -88.65842 | 19759 ft | 232 kts | 339° |
| 2026-04-23 22:27 | 43.84313 | -88.66721 | 19766 ft | 232 kts | 339° |
| 2026-04-23 22:27 | 43.85333 | -88.67156 | 19770 ft | 232 kts | 339° |
| 2026-04-23 22:28 | 43.85854 | -88.67380 | 19761 ft | 232 kts | 339° |
| 2026-04-23 22:28 | 43.86565 | -88.67686 | 19757 ft | 231 kts | 338° |
| 2026-04-23 22:28 | 43.88123 | -88.68354 | 19758 ft | 231 kts | 339° |
| 2026-04-23 22:28 | 43.89640 | -88.69002 | 19758 ft | 231 kts | 339° |
| 2026-04-23 22:29 | 43.91179 | -88.69661 | 19754 ft | 231 kts | 339° |
| 2026-04-23 22:29 | 43.92714 | -88.70317 | 19756 ft | 231 kts | 339° |
| 2026-04-23 22:29 | 43.94251 | -88.70979 | 19760 ft | 231 kts | 339° |
| 2026-04-23 22:29 | 43.95785 | -88.71638 | 19749 ft | 231 kts | 339° |
| 2026-04-23 22:30 | 43.97321 | -88.72294 | 19759 ft | 231 kts | 339° |
| 2026-04-23 22:30 | 43.98853 | -88.72953 | 19753 ft | 230 kts | 339° |
| 2026-04-23 22:30 | 44.00387 | -88.73614 | 19760 ft | 230 kts | 339° |
| 2026-04-23 22:30 | 44.01915 | -88.74271 | 19754 ft | 230 kts | 339° |
| 2026-04-23 22:31 | 44.03450 | -88.74929 | 19760 ft | 230 kts | 339° |
| 2026-04-23 22:31 | 44.04978 | -88.75588 | 19758 ft | 230 kts | 338° |
| 2026-04-23 22:31 | 44.06509 | -88.76247 | 19756 ft | 230 kts | 339° |
| 2026-04-23 22:31 | 44.08036 | -88.76905 | 19756 ft | 230 kts | 339° |
| 2026-04-23 22:32 | 44.09567 | -88.77565 | 19757 ft | 230 kts | 339° |
| 2026-04-23 22:32 | 44.11098 | -88.78226 | 19753 ft | 230 kts | 339° |
| 2026-04-23 22:32 | 44.12624 | -88.78885 | 19756 ft | 230 kts | 339° |
| 2026-04-23 22:32 | 44.14150 | -88.79543 | 19751 ft | 230 kts | 339° |
| 2026-04-23 22:33 | 44.15676 | -88.80202 | 19759 ft | 230 kts | 339° |
| 2026-04-23 22:33 | 44.17203 | -88.80862 | 19750 ft | 229 kts | 339° |
| 2026-04-23 22:33 | 44.18708 | -88.81514 | 19740 ft | 229 kts | 339° |
| 2026-04-23 22:33 | 44.20229 | -88.82171 | 19748 ft | 229 kts | 339° |
| 2026-04-23 22:34 | 44.21749 | -88.82830 | 19749 ft | 228 kts | 339° |
| 2026-04-23 22:34 | 44.23271 | -88.83490 | 19754 ft | 228 kts | 339° |
| 2026-04-23 22:34 | 44.24788 | -88.84147 | 19756 ft | 228 kts | 339° |
| 2026-04-23 22:34 | 44.26305 | -88.84804 | 19757 ft | 228 kts | 339° |
| 2026-04-23 22:35 | 44.27823 | -88.85464 | 19760 ft | 228 kts | 339° |
| 2026-04-23 22:35 | 44.29342 | -88.86123 | 19763 ft | 229 kts | 339° |
| 2026-04-23 22:35 | 44.30863 | -88.86784 | 19760 ft | 229 kts | 339° |
| 2026-04-23 22:35 | 44.32381 | -88.87444 | 19757 ft | 229 kts | 339° |
| 2026-04-23 22:36 | 44.33900 | -88.88105 | 19753 ft | 229 kts | 339° |
| 2026-04-23 22:36 | 44.35420 | -88.88766 | 19760 ft | 228 kts | 338° |
| 2026-04-23 22:36 | 44.36938 | -88.89427 | 19759 ft | 228 kts | 339° |
| 2026-04-23 22:36 | 44.38456 | -88.90087 | 19759 ft | 228 kts | 339° |
| 2026-04-23 22:37 | 44.39951 | -88.90739 | 19756 ft | 228 kts | 339° |
| 2026-04-23 22:37 | 44.41467 | -88.91400 | 19757 ft | 228 kts | 339° |
| 2026-04-23 22:37 | 44.42985 | -88.92062 | 19753 ft | 228 kts | 339° |
| 2026-04-23 22:37 | 44.44497 | -88.92722 | 19756 ft | 228 kts | 339° |
| 2026-04-23 22:38 | 44.46011 | -88.93384 | 19758 ft | 228 kts | 339° |
| 2026-04-23 22:38 | 44.47526 | -88.94045 | 19757 ft | 228 kts | 339° |
| 2026-04-23 22:38 | 44.49039 | -88.94707 | 19758 ft | 228 kts | 339° |
| 2026-04-23 22:38 | 44.50552 | -88.95369 | 19753 ft | 228 kts | 339° |
| 2026-04-23 22:39 | 44.52066 | -88.96031 | 19753 ft | 228 kts | 339° |
| 2026-04-23 22:39 | 44.53578 | -88.96693 | 19751 ft | 228 kts | 339° |
| 2026-04-23 22:39 | 44.55090 | -88.97356 | 19752 ft | 228 kts | 339° |
| 2026-04-23 22:39 | 44.56584 | -88.98010 | 19749 ft | 227 kts | 339° |
| 2026-04-23 22:40 | 44.58095 | -88.98673 | 19744 ft | 227 kts | 339° |
| 2026-04-23 22:40 | 44.59602 | -88.99335 | 19750 ft | 227 kts | 339° |
| 2026-04-23 22:40 | 44.62616 | -89.00659 | 19747 ft | 227 kts | 339° |
| 2026-04-23 22:41 | 44.64123 | -89.01321 | 19748 ft | 227 kts | 339° |
| 2026-04-23 22:41 | 44.65632 | -89.01985 | 19746 ft | 227 kts | 339° |
| 2026-04-23 22:41 | 44.67120 | -89.02640 | 19740 ft | 227 kts | 339° |
| 2026-04-23 22:41 | 44.68626 | -89.03302 | 19745 ft | 226 kts | 339° |
| 2026-04-23 22:42 | 44.70130 | -89.03965 | 19750 ft | 226 kts | 339° |
| 2026-04-23 22:42 | 44.71633 | -89.04628 | 19745 ft | 226 kts | 339° |
| 2026-04-23 22:42 | 44.73137 | -89.05291 | 19742 ft | 226 kts | 339° |
| 2026-04-23 22:42 | 44.74638 | -89.05953 | 19744 ft | 226 kts | 339° |
| 2026-04-23 22:43 | 44.76140 | -89.06616 | 19742 ft | 226 kts | 339° |
| 2026-04-23 22:43 | 44.77641 | -89.07280 | 19728 ft | 226 kts | 339° |
| 2026-04-23 22:43 | 44.79146 | -89.07944 | 19739 ft | 226 kts | 338° |
| 2026-04-23 22:43 | 44.80649 | -89.08609 | 19739 ft | 226 kts | 338° |
| 2026-04-23 22:44 | 44.82132 | -89.09265 | 19738 ft | 226 kts | 339° |
| 2026-04-23 22:44 | 44.83631 | -89.09929 | 19741 ft | 226 kts | 338° |
| 2026-04-23 22:44 | 44.85133 | -89.10594 | 19740 ft | 226 kts | 338° |
| 2026-04-23 22:44 | 44.86638 | -89.11261 | 19743 ft | 226 kts | 339° |
| 2026-04-23 22:45 | 44.88140 | -89.11927 | 19740 ft | 226 kts | 339° |
| 2026-04-23 22:45 | 44.89644 | -89.12593 | 19738 ft | 226 kts | 338° |
| 2026-04-23 22:45 | 44.91149 | -89.13262 | 19734 ft | 226 kts | 338° |
| 2026-04-23 22:45 | 44.92650 | -89.13930 | 19735 ft | 226 kts | 339° |
| 2026-04-23 22:46 | 44.94152 | -89.14596 | 19728 ft | 226 kts | 338° |
| 2026-04-23 22:46 | 44.95652 | -89.15263 | 19737 ft | 226 kts | 338° |
| 2026-04-23 22:46 | 44.97153 | -89.15931 | 19732 ft | 226 kts | 338° |
| 2026-04-23 22:46 | 44.98491 | -89.16527 | 19738 ft | 226 kts | 338° |
| 2026-04-23 22:47 | 44.99978 | -89.17188 | 19733 ft | 226 kts | 338° |
| 2026-04-23 22:47 | 45.01477 | -89.17856 | 19730 ft | 226 kts | 338° |
| 2026-04-23 22:47 | 45.02974 | -89.18524 | 19732 ft | 226 kts | 338° |
| 2026-04-23 22:47 | 45.04468 | -89.19190 | 19727 ft | 225 kts | 338° |
| 2026-04-23 22:48 | 45.05961 | -89.19857 | 19723 ft | 225 kts | 338° |
| 2026-04-23 22:48 | 45.07462 | -89.20528 | 19612 ft | 230 kts | 338° |
| 2026-04-23 22:48 | 45.09032 | -89.21232 | 19335 ft | 242 kts | 339° |
| 2026-04-23 22:48 | 45.10679 | -89.21961 | 19036 ft | 254 kts | 339° |
| 2026-04-23 22:49 | 45.12401 | -89.22733 | 18740 ft | 263 kts | 337° |
| 2026-04-23 22:49 | 45.14168 | -89.23566 | 18434 ft | 271 kts | 338° |
| 2026-04-23 22:49 | 45.15993 | -89.24361 | 18092 ft | 277 kts | 339° |
| 2026-04-23 22:49 | 45.17843 | -89.25165 | 17713 ft | 279 kts | 339° |
| 2026-04-23 22:50 | 45.19688 | -89.25992 | 17321 ft | 276 kts | 339° |
| 2026-04-23 22:50 | 45.21494 | -89.26797 | 16927 ft | 269 kts | 339° |
| 2026-04-23 22:50 | 45.23256 | -89.27597 | 16538 ft | 263 kts | 338° |
| 2026-04-23 22:50 | 45.24987 | -89.28386 | 16158 ft | 259 kts | 338° |
| 2026-04-23 22:51 | 45.26670 | -89.29142 | 15785 ft | 255 kts | 339° |
| 2026-04-23 22:51 | 45.28353 | -89.29899 | 15407 ft | 252 kts | 338° |
| 2026-04-23 22:51 | 45.30018 | -89.30648 | 15034 ft | 249 kts | 338° |
| 2026-04-23 22:51 | 45.31655 | -89.31394 | 14672 ft | 246 kts | 338° |
| 2026-04-23 22:52 | 45.33285 | -89.32129 | 14313 ft | 244 kts | 338° |
| 2026-04-23 22:52 | 45.34894 | -89.32853 | 13979 ft | 241 kts | 338° |
| 2026-04-23 22:52 | 45.36484 | -89.33569 | 13667 ft | 238 kts | 338° |
| 2026-04-23 22:52 | 45.38032 | -89.34269 | 13347 ft | 235 kts | 338° |
| 2026-04-23 22:53 | 45.39585 | -89.34973 | 13005 ft | 233 kts | 338° |
| 2026-04-23 22:53 | 45.41130 | -89.35676 | 12668 ft | 234 kts | 338° |
| 2026-04-23 22:53 | 45.42689 | -89.36384 | 12332 ft | 236 kts | 338° |
| 2026-04-23 22:53 | 45.44258 | -89.37089 | 12003 ft | 236 kts | 338° |
| 2026-04-23 22:54 | 45.45824 | -89.37796 | 11680 ft | 236 kts | 338° |
| 2026-04-23 22:54 | 45.47390 | -89.38506 | 11357 ft | 236 kts | 338° |
| 2026-04-23 22:54 | 45.48951 | -89.39216 | 11031 ft | 236 kts | 338° |
| 2026-04-23 22:54 | 45.50513 | -89.39923 | 10722 ft | 235 kts | 338° |
| 2026-04-23 22:55 | 45.52067 | -89.40629 | 10432 ft | 234 kts | 338° |
| 2026-04-23 22:55 | 45.53612 | -89.41331 | 10145 ft | 233 kts | 338° |
| 2026-04-23 22:55 | 45.55153 | -89.42033 | 9856 ft | 232 kts | 338° |
| 2026-04-23 22:55 | 45.56687 | -89.42729 | 9574 ft | 231 kts | 338° |
| 2026-04-23 22:56 | 45.58196 | -89.43417 | 9266 ft | 230 kts | 338° |
| 2026-04-23 22:56 | 45.59726 | -89.44115 | 8955 ft | 230 kts | 338° |
| 2026-04-23 22:56 | 45.61257 | -89.44813 | 8651 ft | 232 kts | 338° |
| 2026-04-23 22:56 | 45.62796 | -89.45513 | 8353 ft | 231 kts | 337° |
| 2026-04-23 22:57 | 45.64241 | -89.46477 | 8041 ft | 228 kts | 324° |
| 2026-04-23 22:57 | 45.65548 | -89.47746 | 7751 ft | 225 kts | 321° |
| 2026-04-23 22:57 | 45.66849 | -89.49005 | 7430 ft | 226 kts | 322° |
| 2026-04-23 22:57 | 45.68176 | -89.50215 | 7144 ft | 226 kts | 323° |
| 2026-04-23 22:58 | 45.69485 | -89.51414 | 6855 ft | 227 kts | 322° |
| 2026-04-23 22:58 | 45.70806 | -89.52636 | 6569 ft | 226 kts | 323° |
| 2026-04-23 22:58 | 45.72127 | -89.53865 | 6282 ft | 226 kts | 322° |
| 2026-04-23 22:58 | 45.73444 | -89.55086 | 6005 ft | 225 kts | 323° |
| 2026-04-23 22:59 | 45.74759 | -89.56306 | 5699 ft | 225 kts | 323° |
| 2026-04-23 22:59 | 45.76084 | -89.57533 | 5406 ft | 227 kts | 323° |
| 2026-04-23 22:59 | 45.77406 | -89.58759 | 5147 ft | 225 kts | 323° |
| 2026-04-23 22:59 | 45.78705 | -89.59959 | 4879 ft | 210 kts | 324° |
| 2026-04-23 23:00 | 45.79858 | -89.60995 | 4625 ft | 182 kts | 323° |
| 2026-04-23 23:00 | 45.80875 | -89.61957 | 4358 ft | 169 kts | 322° |
| 2026-04-23 23:00 | 45.81837 | -89.62869 | 4073 ft | 163 kts | 323° |
| 2026-04-23 23:00 | 45.82756 | -89.63721 | 3814 ft | 158 kts | 323° |
| 2026-04-23 23:01 | 45.83669 | -89.64567 | 3503 ft | 156 kts | 323° |
| 2026-04-23 23:01 | 45.84579 | -89.65374 | 3282 ft | 151 kts | 325° |
| 2026-04-23 23:01 | 45.85461 | -89.66124 | 3147 ft | 143 kts | 326° |
| 2026-04-23 23:01 | 45.86321 | -89.66885 | 3083 ft | 148 kts | 324° |
| 2026-04-23 23:02 | 45.87191 | -89.67691 | 3026 ft | 151 kts | 324° |
| 2026-04-23 23:02 | 45.88074 | -89.68528 | 3042 ft | 151 kts | 324° |
| 2026-04-23 23:02 | 45.88983 | -89.69378 | 3088 ft | 160 kts | 328° |
| 2026-04-23 23:02 | 45.90061 | -89.69814 | 3126 ft | 160 kts | 356° |
| 2026-04-23 23:03 | 45.91127 | -89.69786 | 3172 ft | 152 kts | 2° |
| 2026-04-23 23:03 | 45.92152 | -89.69787 | 3372 ft | 138 kts | 0° |
| 2026-04-23 23:03 | 45.93109 | -89.69819 | 3532 ft | 136 kts | 1° |
| 2026-04-23 23:03 | 45.94102 | -89.69834 | 3478 ft | 148 kts | 357° |
| 2026-04-23 23:04 | 45.95134 | -89.69889 | 3547 ft | 146 kts | 358° |
| 2026-04-23 23:04 | 45.96136 | -89.69890 | 3551 ft | 148 kts | 1° |
| 2026-04-23 23:04 | 45.97189 | -89.69863 | 3325 ft | 148 kts | 2° |
| 2026-04-23 23:04 | 45.98128 | -89.70130 | 3188 ft | 132 kts | 327° |
| 2026-04-23 23:05 | 45.98704 | -89.71102 | 2884 ft | 123 kts | 276° |
| 2026-04-23 23:05 | 45.98501 | -89.71990 | 2640 ft | 85 kts | 207° |
| 2026-04-23 23:05 | 45.98007 | -89.72484 | 2404 ft | 86 kts | 207° |
| 2026-04-23 23:05 | 45.97535 | -89.72973 | 2359 ft | 82 kts | 210° |
| 2026-04-23 23:06 | 45.97049 | -89.73359 | 2318 ft | 80 kts | 187° |
| 2026-04-23 23:06 | 45.96489 | -89.73376 | 2136 ft | 79 kts | 185° |
| 2026-04-23 23:06 | 45.95939 | -89.73372 | 2050 ft | 81 kts | 181° |
| 2026-04-23 23:06 | 45.95363 | -89.73334 | 1964 ft | 86 kts | 183° |
| 2026-04-23 23:07 | 45.94759 | -89.73355 | 1883 ft | 86 kts | 178° |
| 2026-04-23 23:07 | 45.94194 | -89.73320 | 1750 ft | 75 kts | 176° |
| 2026-04-23 23:07 | 45.93697 | -89.73304 | 1657 ft | 70 kts | 179° |
| 2026-04-23 23:07 | 45.93258 | -89.73290 | 1634 ft | 54 kts | 179° |
| 2026-04-23 23:08 | 45.93007 | -89.73285 | 1629 ft | 21 kts | 179° |
| 2026-04-23 23:08 | 45.92904 | -89.73281 | 1628 ft | 13 kts | 177° |
| 2026-04-23 23:08 | 45.92855 | -89.73206 | 1629 ft | 14 kts | 89° |
| 2026-04-23 23:08 | 45.92826 | -89.73098 | 1629 ft | 9 kts | 144° |
| 2026-04-23 23:09 | 45.92777 | -89.73044 | 1629 ft | 8 kts | 142° |
| 2026-04-23 23:09 | 45.92724 | -89.73020 | 1628 ft | 8 kts | 169° |
| 2026-04-23 23:09 | 45.92661 | -89.73019 | 1628 ft | 13 kts | 185° |
| 2026-04-23 23:09 | 45.92593 | -89.73012 | 1628 ft | 10 kts | 129° |
| 2026-04-23 23:10 | 45.92598 | -89.72962 | 1628 ft | 7 kts | 24° |
| 2026-04-23 23:10 | 45.92617 | -89.72991 | 1628 ft | 1 kts | 269° |